EZS59QK LSGG-LEBB
Flight info
| Callsign | EZS59QK |
|---|---|
| Flight time | 1h 15m |
| Altitude | 31000 |
| Route | DEPUL T544 LSE DCT RUSIT DCT ESIDA DCT LERGA/N0414F330 DCT MINSO DCT NARAK/N0444F390 DCT AGN DCT LATEK DCT PPN M601 CEGAM |
| Aircraft | A20N/M-SDE2E3FGHIRWXY/LB1 |
Departure
| Time | 2026-05-04 13:15 |
|---|---|
| Airport | Geneva International Airport (LSGG) |
Arrival
| Time | 2026-05-04 14:30 |
|---|---|
| Airport | Bilbao Airport (LEBB) |
| Time | Latitude | Longitude | Altitude | Speed | Heading |
|---|---|---|---|---|---|
| 2026-05-04 12:30 | 46.23450 | 6.10850 | 1400 ft | 0 kts | 135° |
| 2026-05-04 13:07 | 46.23450 | 6.10851 | 1396 ft | 0 kts | 135° |
| 2026-05-04 13:07 | 46.23445 | 6.10859 | 1406 ft | 2 kts | 135° |
| 2026-05-04 13:07 | 46.23432 | 6.10877 | 1407 ft | 3 kts | 136° |
| 2026-05-04 13:07 | 46.23410 | 6.10914 | 1403 ft | 5 kts | 113° |
| 2026-05-04 13:08 | 46.23419 | 6.10954 | 1401 ft | 3 kts | 34° |
| 2026-05-04 13:08 | 46.23445 | 6.10980 | 1400 ft | 7 kts | 39° |
| 2026-05-04 13:08 | 46.23482 | 6.11033 | 1405 ft | 8 kts | 45° |
| 2026-05-04 13:08 | 46.23527 | 6.11098 | 1400 ft | 9 kts | 45° |
| 2026-05-04 13:09 | 46.23572 | 6.11160 | 1403 ft | 10 kts | 31° |
| 2026-05-04 13:09 | 46.23634 | 6.11118 | 1395 ft | 11 kts | 316° |
| 2026-05-04 13:09 | 46.23692 | 6.11067 | 1402 ft | 10 kts | 13° |
| 2026-05-04 13:09 | 46.23761 | 6.11164 | 1382 ft | 17 kts | 45° |
| 2026-05-04 13:10 | 46.23846 | 6.11287 | 1378 ft | 17 kts | 45° |
| 2026-05-04 13:10 | 46.23932 | 6.11414 | 1378 ft | 18 kts | 46° |
| 2026-05-04 13:10 | 46.24023 | 6.11546 | 1374 ft | 19 kts | 46° |
| 2026-05-04 13:10 | 46.24118 | 6.11682 | 1370 ft | 20 kts | 43° |
| 2026-05-04 13:11 | 46.24212 | 6.11824 | 1366 ft | 20 kts | 46° |
| 2026-05-04 13:11 | 46.24297 | 6.11951 | 1366 ft | 15 kts | 45° |
| 2026-05-04 13:11 | 46.24361 | 6.12045 | 1369 ft | 11 kts | 46° |
| 2026-05-04 13:11 | 46.24405 | 6.12109 | 1372 ft | 7 kts | 45° |
| 2026-05-04 13:12 | 46.24432 | 6.12148 | 1373 ft | 6 kts | 45° |
| 2026-05-04 13:12 | 46.24469 | 6.12202 | 1375 ft | 12 kts | 46° |
| 2026-05-04 13:12 | 46.24538 | 6.12304 | 1375 ft | 14 kts | 46° |
| 2026-05-04 13:12 | 46.24617 | 6.12419 | 1372 ft | 19 kts | 46° |
| 2026-05-04 13:13 | 46.24715 | 6.12565 | 1365 ft | 21 kts | 45° |
| 2026-05-04 13:13 | 46.24831 | 6.12683 | 1366 ft | 19 kts | 20° |
| 2026-05-04 13:13 | 46.24942 | 6.12730 | 1371 ft | 14 kts | 7° |
| 2026-05-04 13:13 | 46.24995 | 6.12669 | 1374 ft | 8 kts | 274° |
| 2026-05-04 13:14 | 46.24974 | 6.12610 | 1374 ft | 6 kts | 226° |
| 2026-05-04 13:14 | 46.24893 | 6.12489 | 1375 ft | 42 kts | 225° |
| 2026-05-04 13:14 | 46.24508 | 6.11922 | 1375 ft | 116 kts | 225° |
| 2026-05-04 13:14 | 46.23773 | 6.10845 | 1466 ft | 172 kts | 226° |
| 2026-05-04 13:15 | 46.22942 | 6.09610 | 2336 ft | 169 kts | 226° |
| 2026-05-04 13:15 | 46.22136 | 6.08440 | 3436 ft | 153 kts | 223° |
| 2026-05-04 13:15 | 46.21455 | 6.07457 | 4560 ft | 132 kts | 221° |
| 2026-05-04 13:15 | 46.20770 | 6.06469 | 5071 ft | 152 kts | 222° |
| 2026-05-04 13:16 | 46.19950 | 6.05285 | 5379 ft | 181 kts | 222° |
| 2026-05-04 13:16 | 46.19001 | 6.03901 | 5683 ft | 206 kts | 223° |
| 2026-05-04 13:16 | 46.17935 | 6.02331 | 5896 ft | 237 kts | 224° |
| 2026-05-04 13:16 | 46.16731 | 6.00549 | 6451 ft | 254 kts | 224° |
| 2026-05-04 13:17 | 46.15501 | 5.98711 | 7357 ft | 255 kts | 226° |
| 2026-05-04 13:17 | 46.14434 | 5.96626 | 8221 ft | 260 kts | 235° |
| 2026-05-04 13:17 | 46.13442 | 5.94421 | 9112 ft | 263 kts | 236° |
| 2026-05-04 13:17 | 46.12434 | 5.92190 | 9976 ft | 267 kts | 235° |
| 2026-05-04 13:18 | 46.11392 | 5.89925 | 10533 ft | 278 kts | 236° |
| 2026-05-04 13:18 | 46.10264 | 5.87515 | 10792 ft | 300 kts | 234° |
| 2026-05-04 13:18 | 46.09069 | 5.84983 | 11364 ft | 311 kts | 234° |
| 2026-05-04 13:18 | 46.07836 | 5.82383 | 12082 ft | 316 kts | 234° |
| 2026-05-04 13:19 | 46.06600 | 5.79783 | 12887 ft | 319 kts | 234° |
| 2026-05-04 13:19 | 46.05338 | 5.77132 | 13700 ft | 323 kts | 234° |
| 2026-05-04 13:19 | 46.04052 | 5.74438 | 14392 ft | 329 kts | 234° |
| 2026-05-04 13:19 | 46.02751 | 5.71714 | 15135 ft | 331 kts | 233° |
| 2026-05-04 13:20 | 46.01445 | 5.68982 | 15904 ft | 333 kts | 233° |
| 2026-05-04 13:20 | 46.00125 | 5.66226 | 16627 ft | 336 kts | 233° |
| 2026-05-04 13:20 | 45.98788 | 5.63436 | 17347 ft | 340 kts | 233° |
| 2026-05-04 13:20 | 45.97441 | 5.60616 | 18023 ft | 344 kts | 234° |
| 2026-05-04 13:21 | 45.96127 | 5.57709 | 18654 ft | 348 kts | 235° |
| 2026-05-04 13:21 | 45.94841 | 5.54790 | 19199 ft | 351 kts | 235° |
| 2026-05-04 13:21 | 45.93526 | 5.51797 | 19776 ft | 355 kts | 235° |
| 2026-05-04 13:21 | 45.92203 | 5.48789 | 20367 ft | 358 kts | 235° |
| 2026-05-04 13:22 | 45.90866 | 5.45754 | 20944 ft | 362 kts | 235° |
| 2026-05-04 13:22 | 45.89508 | 5.42679 | 21510 ft | 365 kts | 234° |
| 2026-05-04 13:22 | 45.88139 | 5.39585 | 22093 ft | 368 kts | 235° |
| 2026-05-04 13:22 | 45.86758 | 5.36469 | 22635 ft | 372 kts | 235° |
| 2026-05-04 13:23 | 45.85361 | 5.33318 | 23180 ft | 375 kts | 235° |
| 2026-05-04 13:23 | 45.83955 | 5.30152 | 23700 ft | 378 kts | 235° |
| 2026-05-04 13:23 | 45.82556 | 5.27005 | 24119 ft | 381 kts | 235° |
| 2026-05-04 13:23 | 45.81122 | 5.23782 | 24561 ft | 383 kts | 235° |
| 2026-05-04 13:24 | 45.79683 | 5.20552 | 25001 ft | 385 kts | 234° |
| 2026-05-04 13:24 | 45.78235 | 5.17305 | 25441 ft | 388 kts | 234° |
| 2026-05-04 13:24 | 45.76778 | 5.14040 | 25862 ft | 389 kts | 234° |
| 2026-05-04 13:25 | 45.73880 | 5.07425 | 26702 ft | 394 kts | 236° |
| 2026-05-04 13:25 | 45.72515 | 5.04017 | 27099 ft | 396 kts | 238° |
| 2026-05-04 13:25 | 45.71177 | 5.00550 | 27490 ft | 398 kts | 238° |
| 2026-05-04 13:25 | 45.69865 | 4.97103 | 27873 ft | 400 kts | 238° |
| 2026-05-04 13:26 | 45.68527 | 4.93588 | 28249 ft | 402 kts | 238° |
| 2026-05-04 13:26 | 45.67183 | 4.90072 | 28617 ft | 404 kts | 238° |
| 2026-05-04 13:26 | 45.65861 | 4.86502 | 28981 ft | 407 kts | 239° |
| 2026-05-04 13:26 | 45.64568 | 4.82883 | 29328 ft | 409 kts | 240° |
| 2026-05-04 13:27 | 45.63289 | 4.79243 | 29670 ft | 411 kts | 240° |
| 2026-05-04 13:27 | 45.62007 | 4.75578 | 30016 ft | 413 kts | 240° |
| 2026-05-04 13:27 | 45.60730 | 4.71937 | 30308 ft | 415 kts | 240° |
| 2026-05-04 13:27 | 45.59431 | 4.68248 | 30622 ft | 415 kts | 240° |
| 2026-05-04 13:28 | 45.58126 | 4.64560 | 30949 ft | 415 kts | 240° |
| 2026-05-04 13:28 | 45.56821 | 4.60885 | 31372 ft | 412 kts | 240° |
| 2026-05-04 13:28 | 45.55526 | 4.57247 | 31825 ft | 409 kts | 240° |
| 2026-05-04 13:28 | 45.54237 | 4.53633 | 32272 ft | 406 kts | 240° |
| 2026-05-04 13:29 | 45.52957 | 4.50054 | 32661 ft | 404 kts | 240° |
| 2026-05-04 13:29 | 45.51682 | 4.46497 | 32966 ft | 404 kts | 240° |
| 2026-05-04 13:29 | 45.49184 | 4.39530 | 33234 ft | 393 kts | 240° |
| 2026-05-04 13:30 | 45.47932 | 4.36049 | 33386 ft | 397 kts | 240° |
| 2026-05-04 13:30 | 45.46662 | 4.32527 | 33581 ft | 399 kts | 240° |
| 2026-05-04 13:30 | 45.45396 | 4.29015 | 33886 ft | 398 kts | 240° |
| 2026-05-04 13:30 | 45.44133 | 4.25515 | 34196 ft | 397 kts | 240° |
| 2026-05-04 13:31 | 45.42870 | 4.22019 | 34465 ft | 396 kts | 240° |
| 2026-05-04 13:31 | 45.41611 | 4.18539 | 34713 ft | 395 kts | 240° |
| 2026-05-04 13:31 | 45.40353 | 4.15066 | 34968 ft | 394 kts | 240° |
| 2026-05-04 13:31 | 45.39104 | 4.11620 | 35356 ft | 389 kts | 240° |
| 2026-05-04 13:32 | 45.37881 | 4.08252 | 35715 ft | 386 kts | 240° |
| 2026-05-04 13:32 | 45.36648 | 4.04859 | 35973 ft | 385 kts | 240° |
| 2026-05-04 13:32 | 45.35415 | 4.01473 | 36190 ft | 384 kts | 240° |
| 2026-05-04 13:32 | 45.34182 | 3.98093 | 36374 ft | 384 kts | 240° |
| 2026-05-04 13:33 | 45.32949 | 3.94714 | 36563 ft | 384 kts | 240° |
| 2026-05-04 13:33 | 45.31728 | 3.91375 | 36656 ft | 387 kts | 240° |
| 2026-05-04 13:33 | 45.29224 | 3.84540 | 36775 ft | 392 kts | 240° |
| 2026-05-04 13:34 | 45.26682 | 3.77617 | 36903 ft | 398 kts | 240° |
| 2026-05-04 13:34 | 45.23808 | 3.70855 | 37009 ft | 402 kts | 234° |
| 2026-05-04 13:35 | 45.18893 | 3.60986 | 37012 ft | 412 kts | 233° |
| 2026-05-04 13:36 | 45.15580 | 3.54397 | 37007 ft | 413 kts | 233° |
| 2026-05-04 13:36 | 45.12272 | 3.47752 | 37001 ft | 412 kts | 234° |
| 2026-05-04 13:37 | 45.08977 | 3.41110 | 36994 ft | 412 kts | 233° |
| 2026-05-04 13:37 | 45.05693 | 3.34503 | 36987 ft | 412 kts | 233° |
| 2026-05-04 13:38 | 45.02396 | 3.27886 | 36981 ft | 411 kts | 233° |
| 2026-05-04 13:38 | 44.99084 | 3.21257 | 36978 ft | 411 kts | 233° |
| 2026-05-04 13:39 | 44.95799 | 3.14697 | 36983 ft | 411 kts | 233° |
| 2026-05-04 13:39 | 44.92494 | 3.08113 | 36977 ft | 411 kts | 233° |
| 2026-05-04 13:40 | 44.89181 | 3.01530 | 36973 ft | 411 kts | 233° |
| 2026-05-04 13:40 | 44.85885 | 2.94995 | 36972 ft | 411 kts | 233° |
| 2026-05-04 13:41 | 44.82662 | 2.88325 | 36966 ft | 411 kts | 236° |
| 2026-05-04 13:41 | 44.79551 | 2.81531 | 36964 ft | 412 kts | 236° |
| 2026-05-04 13:42 | 44.74888 | 2.71337 | 36959 ft | 412 kts | 236° |
| 2026-05-04 13:42 | 44.71777 | 2.64604 | 36949 ft | 413 kts | 236° |
| 2026-05-04 13:43 | 44.68627 | 2.57818 | 36950 ft | 413 kts | 235° |
| 2026-05-04 13:43 | 44.65500 | 2.51099 | 36945 ft | 413 kts | 235° |
| 2026-05-04 13:44 | 44.62345 | 2.44337 | 36946 ft | 414 kts | 235° |
| 2026-05-04 13:44 | 44.59183 | 2.37571 | 36935 ft | 414 kts | 235° |
| 2026-05-04 13:45 | 44.56551 | 2.31953 | 36941 ft | 414 kts | 235° |
| 2026-05-04 13:45 | 44.52863 | 2.24099 | 36940 ft | 414 kts | 235° |
| 2026-05-04 13:46 | 44.50226 | 2.18495 | 36936 ft | 414 kts | 235° |
| 2026-05-04 13:46 | 44.47051 | 2.11764 | 36936 ft | 414 kts | 235° |
| 2026-05-04 13:47 | 44.43869 | 2.05032 | 36931 ft | 415 kts | 235° |
| 2026-05-04 13:47 | 44.40679 | 1.98302 | 36927 ft | 415 kts | 235° |
| 2026-05-04 13:48 | 44.37477 | 1.91559 | 36923 ft | 416 kts | 235° |
| 2026-05-04 13:48 | 44.34292 | 1.84869 | 36922 ft | 416 kts | 235° |
| 2026-05-04 13:49 | 44.31080 | 1.78137 | 36920 ft | 417 kts | 235° |
| 2026-05-04 13:49 | 44.27887 | 1.71364 | 36917 ft | 417 kts | 236° |
| 2026-05-04 13:50 | 44.24752 | 1.64532 | 36916 ft | 418 kts | 236° |
| 2026-05-04 13:50 | 44.21618 | 1.57684 | 36912 ft | 419 kts | 236° |
| 2026-05-04 13:51 | 44.18485 | 1.50872 | 36911 ft | 419 kts | 236° |
| 2026-05-04 13:51 | 44.15323 | 1.44029 | 36908 ft | 420 kts | 236° |
| 2026-05-04 13:52 | 44.10567 | 1.33772 | 36905 ft | 420 kts | 236° |
| 2026-05-04 13:53 | 44.07398 | 1.26958 | 36906 ft | 420 kts | 236° |
| 2026-05-04 13:53 | 44.04212 | 1.20122 | 36907 ft | 421 kts | 236° |
| 2026-05-04 13:54 | 43.99446 | 1.09926 | 36917 ft | 420 kts | 235° |
| 2026-05-04 13:55 | 43.94658 | 0.99717 | 36918 ft | 420 kts | 235° |
| 2026-05-04 13:55 | 43.89867 | 0.89539 | 36915 ft | 419 kts | 235° |
| 2026-05-04 13:56 | 43.86326 | 0.83158 | 36920 ft | 417 kts | 228° |
| 2026-05-04 13:57 | 43.80475 | 0.74247 | 36928 ft | 417 kts | 226° |
| 2026-05-04 13:58 | 43.72688 | 0.62406 | 36929 ft | 416 kts | 227° |
| 2026-05-04 13:58 | 43.66889 | 0.53498 | 36928 ft | 416 kts | 227° |
| 2026-05-04 13:59 | 43.63034 | 0.47589 | 36932 ft | 415 kts | 227° |
| 2026-05-04 14:00 | 43.57224 | 0.38712 | 36946 ft | 415 kts | 227° |
| 2026-05-04 14:00 | 43.51387 | 0.29825 | 36947 ft | 416 kts | 227° |
| 2026-05-04 14:01 | 43.47654 | 0.24156 | 36954 ft | 417 kts | 227° |
| 2026-05-04 14:02 | 43.41812 | 0.15305 | 36958 ft | 418 kts | 227° |
| 2026-05-04 14:02 | 43.37894 | 0.09385 | 36954 ft | 419 kts | 227° |
| 2026-05-04 14:03 | 43.33972 | 0.03470 | 36965 ft | 419 kts | 227° |
| 2026-05-04 14:03 | 43.30039 | -0.02448 | 36974 ft | 419 kts | 227° |
| 2026-05-04 14:04 | 43.24188 | -0.11231 | 36968 ft | 419 kts | 227° |
| 2026-05-04 14:04 | 43.20238 | -0.17145 | 36967 ft | 419 kts | 227° |
| 2026-05-04 14:05 | 43.14335 | -0.25960 | 36967 ft | 419 kts | 227° |
| 2026-05-04 14:06 | 43.10381 | -0.31849 | 36966 ft | 419 kts | 227° |
| 2026-05-04 14:06 | 43.06429 | -0.37723 | 36960 ft | 419 kts | 227° |
| 2026-05-04 14:07 | 43.02473 | -0.43590 | 36957 ft | 419 kts | 227° |
| 2026-05-04 14:07 | 42.98520 | -0.49443 | 36959 ft | 419 kts | 226° |
| 2026-05-04 14:08 | 42.94581 | -0.55263 | 36880 ft | 419 kts | 226° |
| 2026-05-04 14:08 | 42.92607 | -0.58176 | 36536 ft | 418 kts | 226° |
| 2026-05-04 14:08 | 42.90621 | -0.61102 | 36157 ft | 418 kts | 226° |
| 2026-05-04 14:08 | 42.88647 | -0.64013 | 35785 ft | 417 kts | 227° |
| 2026-05-04 14:09 | 42.86128 | -0.71049 | 35054 ft | 424 kts | 253° |
| 2026-05-04 14:09 | 42.85620 | -0.75012 | 34719 ft | 427 kts | 257° |
| 2026-05-04 14:10 | 42.84930 | -0.83102 | 33869 ft | 429 kts | 257° |
| 2026-05-04 14:10 | 42.84552 | -0.87125 | 33304 ft | 429 kts | 257° |
| 2026-05-04 14:10 | 42.84116 | -0.91153 | 32682 ft | 428 kts | 256° |
| 2026-05-04 14:10 | 42.83630 | -0.95174 | 32092 ft | 432 kts | 255° |
| 2026-05-04 14:11 | 42.83107 | -0.99221 | 31500 ft | 435 kts | 255° |
| 2026-05-04 14:11 | 42.82004 | -1.07383 | 30371 ft | 443 kts | 255° |
| 2026-05-04 14:11 | 42.81439 | -1.11524 | 29781 ft | 445 kts | 255° |
| 2026-05-04 14:12 | 42.80874 | -1.15676 | 29130 ft | 442 kts | 255° |
| 2026-05-04 14:12 | 42.80319 | -1.19778 | 28500 ft | 439 kts | 255° |
| 2026-05-04 14:12 | 42.79226 | -1.27856 | 27290 ft | 433 kts | 255° |
| 2026-05-04 14:13 | 42.78681 | -1.31862 | 26703 ft | 429 kts | 255° |
| 2026-05-04 14:13 | 42.78136 | -1.35857 | 26122 ft | 426 kts | 255° |
| 2026-05-04 14:13 | 42.77597 | -1.39794 | 25556 ft | 422 kts | 255° |
| 2026-05-04 14:13 | 42.77057 | -1.43724 | 24994 ft | 418 kts | 255° |
| 2026-05-04 14:14 | 42.76523 | -1.47602 | 24449 ft | 415 kts | 255° |
| 2026-05-04 14:14 | 42.75473 | -1.55196 | 23368 ft | 408 kts | 255° |
| 2026-05-04 14:14 | 42.74941 | -1.59025 | 22735 ft | 404 kts | 255° |
| 2026-05-04 14:15 | 42.73912 | -1.66402 | 21512 ft | 399 kts | 255° |
| 2026-05-04 14:15 | 42.73617 | -1.73892 | 20332 ft | 398 kts | 274° |
| 2026-05-04 14:16 | 42.75737 | -1.80808 | 19259 ft | 401 kts | 302° |
| 2026-05-04 14:16 | 42.77435 | -1.83830 | 18788 ft | 400 kts | 304° |
| 2026-05-04 14:17 | 42.80881 | -1.89657 | 17618 ft | 395 kts | 305° |
| 2026-05-04 14:17 | 42.82603 | -1.92564 | 17004 ft | 391 kts | 305° |
| 2026-05-04 14:17 | 42.85975 | -1.98280 | 15820 ft | 382 kts | 305° |
| 2026-05-04 14:18 | 42.87625 | -2.01085 | 15244 ft | 378 kts | 306° |
| 2026-05-04 14:18 | 42.90841 | -2.06561 | 14126 ft | 357 kts | 306° |
| 2026-05-04 14:19 | 42.93841 | -2.11679 | 12950 ft | 334 kts | 306° |
| 2026-05-04 14:19 | 42.95269 | -2.14121 | 12354 ft | 323 kts | 306° |
| 2026-05-04 14:19 | 42.96650 | -2.16485 | 11781 ft | 315 kts | 306° |
| 2026-05-04 14:19 | 42.97984 | -2.18770 | 11256 ft | 307 kts | 306° |
| 2026-05-04 14:20 | 42.99293 | -2.21017 | 10758 ft | 298 kts | 307° |
| 2026-05-04 14:20 | 43.00562 | -2.23196 | 10329 ft | 289 kts | 306° |
| 2026-05-04 14:20 | 43.01800 | -2.25319 | 10014 ft | 285 kts | 307° |
| 2026-05-04 14:21 | 43.04213 | -2.29468 | 9304 ft | 281 kts | 307° |
| 2026-05-04 14:21 | 43.05430 | -2.31561 | 8936 ft | 278 kts | 307° |
| 2026-05-04 14:21 | 43.06625 | -2.33618 | 8572 ft | 276 kts | 307° |
| 2026-05-04 14:21 | 43.07803 | -2.35649 | 8222 ft | 274 kts | 307° |
| 2026-05-04 14:22 | 43.08993 | -2.37721 | 7863 ft | 272 kts | 308° |
| 2026-05-04 14:22 | 43.10062 | -2.39807 | 7517 ft | 270 kts | 303° |
| 2026-05-04 14:22 | 43.11184 | -2.41870 | 7172 ft | 269 kts | 311° |
| 2026-05-04 14:22 | 43.12415 | -2.43774 | 6919 ft | 266 kts | 308° |
| 2026-05-04 14:23 | 43.14378 | -2.48061 | 6431 ft | 265 kts | 298° |
| 2026-05-04 14:23 | 43.15206 | -2.50309 | 6228 ft | 264 kts | 297° |
| 2026-05-04 14:23 | 43.15987 | -2.52578 | 6204 ft | 263 kts | 296° |
| 2026-05-04 14:24 | 43.16774 | -2.54832 | 6209 ft | 256 kts | 298° |
| 2026-05-04 14:24 | 43.17563 | -2.56944 | 6206 ft | 240 kts | 298° |
| 2026-05-04 14:24 | 43.18307 | -2.58927 | 6059 ft | 230 kts | 298° |
| 2026-05-04 14:24 | 43.19015 | -2.60855 | 5806 ft | 223 kts | 297° |
| 2026-05-04 14:25 | 43.19692 | -2.62701 | 5443 ft | 216 kts | 298° |
| 2026-05-04 14:25 | 43.21013 | -2.66289 | 4582 ft | 208 kts | 298° |
| 2026-05-04 14:25 | 43.21662 | -2.68054 | 4200 ft | 204 kts | 298° |
| 2026-05-04 14:26 | 43.22288 | -2.69756 | 3890 ft | 196 kts | 298° |
| 2026-05-04 14:26 | 43.22885 | -2.71380 | 3627 ft | 186 kts | 298° |
| 2026-05-04 14:26 | 43.23464 | -2.72955 | 3315 ft | 183 kts | 297° |
| 2026-05-04 14:26 | 43.24024 | -2.74479 | 3069 ft | 177 kts | 297° |
| 2026-05-04 14:27 | 43.24574 | -2.75976 | 2823 ft | 173 kts | 298° |
| 2026-05-04 14:27 | 43.25105 | -2.77426 | 2541 ft | 166 kts | 298° |
| 2026-05-04 14:27 | 43.25616 | -2.78814 | 2274 ft | 159 kts | 298° |
| 2026-05-04 14:27 | 43.26105 | -2.80147 | 2022 ft | 154 kts | 298° |
| 2026-05-04 14:28 | 43.26574 | -2.81423 | 1782 ft | 144 kts | 298° |
| 2026-05-04 14:28 | 43.27008 | -2.82605 | 1549 ft | 133 kts | 297° |
| 2026-05-04 14:28 | 43.27405 | -2.83687 | 1349 ft | 126 kts | 298° |
| 2026-05-04 14:28 | 43.27784 | -2.84717 | 1155 ft | 125 kts | 298° |
| 2026-05-04 14:29 | 43.28520 | -2.86753 | 785 ft | 124 kts | 298° |
| 2026-05-04 14:29 | 43.29297 | -2.88846 | 378 ft | 123 kts | 298° |
| 2026-05-04 14:30 | 43.29682 | -2.89903 | 206 ft | 124 kts | 298° |
| 2026-05-04 14:30 | 43.30049 | -2.90882 | 132 ft | 88 kts | 295° |
| 2026-05-04 14:30 | 43.30322 | -2.91628 | 134 ft | 34 kts | 297° |
| 2026-05-04 14:31 | 43.30448 | -2.91901 | 132 ft | 35 kts | 313° |
| 2026-05-04 14:31 | 43.30632 | -2.92007 | 128 ft | 12 kts | 68° |
| 2026-05-04 14:32 | 43.30545 | -2.91741 | 130 ft | 18 kts | 116° |
| 2026-05-04 14:32 | 43.30509 | -2.91641 | 135 ft | 17 kts | 116° |
| 2026-05-04 14:32 | 43.30451 | -2.91482 | 136 ft | 20 kts | 116° |
| 2026-05-04 14:32 | 43.30386 | -2.91308 | 138 ft | 20 kts | 117° |
| 2026-05-04 14:33 | 43.30323 | -2.91133 | 135 ft | 21 kts | 115° |
| 2026-05-04 14:33 | 43.30330 | -2.91022 | 138 ft | 8 kts | 37° |
| 2026-05-04 14:33 | 43.30362 | -2.90998 | 140 ft | 2 kts | 27° |
| 2026-05-04 14:33 | 43.30374 | -2.90989 | 142 ft | 5 kts | 27° |
| 2026-05-04 14:34 | 43.30402 | -2.90927 | 146 ft | 12 kts | 86° |
| 2026-05-04 14:34 | 43.30405 | -2.90801 | 149 ft | 12 kts | 100° |
| 2026-05-04 14:34 | 43.30397 | -2.90727 | 150 ft | 4 kts | 62° |
| 2026-05-04 14:34 | 43.30403 | -2.90722 | 151 ft | 2 kts | 30° |
| 2026-05-04 14:35 | 43.30415 | -2.90712 | 152 ft | 1 kts | 28° |
| 2026-05-04 14:35 | 43.30424 | -2.90706 | 153 ft | 0 kts | 28° |
| 2026-05-04 14:35 | 43.30448 | -2.90689 | 155 ft | 3 kts | 25° |
| 2026-05-04 14:35 | 43.30449 | -2.90689 | 155 ft | 0 kts | 25° |